Lacelle, Iowa
Current Conditions -  °F | °C
As of 2:15 AM on Saturday 25 Oct 2014 (Local Time) from KI75 Reporting Station
Clear Clear  
Wind Chill: 53°   Ceiling: Unl
Heat Index: 53°   Visibility: 7mi
Dew Point: 52°   Wind: 6mph
Humidity: 97%   Direction: 300°WNW
Pressure: 30"   Gusts: NA
Location:  41.0111°N, 93.7971°W
Report Text: KI75 250715Z AUTO 30005KT 7SM CLR 12/11 A3000 RMK AO2 T01160112
Loading
Personal Weather Stations






























Interactive Weather Map
Tropical Storm Tracking
New forecast layout! Learn more

10-Day Weather Forecast

Advertisements
Track Severe Weather on mobile